Airfield :
LOGIN :

Register | Disclaimer

   EN    FR    IT 

 










Legend :    VFR   Marginal VFR   IFR   Intensive IFR   Very Intensive IFR
Visi :
Ceiling :
>= 8 km
>= 3000ft
5 to 8 km
1000 to 3000 ft
1500m to 5 km
500 to 1000 ft
800 to 1500m
200 to 500 ft
< 800m
< 200 ft
Symbols :   Thunderstorms  Fog  Heavy snow  Heavy precipitations  Wind > 20 kt
SIGMETs :     Misc.  Thunderstorms  Icing  Turbulence  Mountain Waves  Volcanic Ashes







- Airport Elevation : 2096 ft
- IATA code : AUR
- Download approach charts


LFLW - Aurillac

CURRENT METAR :
  • 250030Z AUTO 30005KT 270V330 4200 1800 BR BKN003 OVC056 12/12 Q1017

EXPIRED METARs :
  • 250000Z AUTO 29005KT 3100 -RA BR OVC003 12/11 Q1018
  • 242330Z AUTO 29003KT 3400 -RA BR OVC002 12/12 Q1018
  • 242300Z AUTO 30003KT 3700 -RA BR OVC002/// ///TCU 12/12 Q1018
  • 242230Z AUTO 27002KT 4800 -RA BR BKN004/// BKN015/// OVC070/// ///TCU 12/12 Q1018
  • 242200Z AUTO 31005KT 4800 -RA BR BKN003 OVC007 12/12 Q1018

Expired Forecast.
No reported NOTAMs for that airfield.



MET'MAP, your aeronautical weather chart ! - Copyright ORBIFLY December 2007 - Disclaimer

ORBIFLY MET'MAP TEAM :

Programming & Development : Alexandra Zaïnal
Concept & Development : Baudouin d'Aumeries
Co-Development & Prog : Marc-Olivier Méhu
Technical & hardware support : Manuel Goepfert

Contact : metmap@orbifly.com




SOURCES & CREDITS :

   NOAA